Aérodrome :
LOGIN :

S'inscrire | Disclaimer

   EN    FR    IT 

 










Légende :    VFR   VFR Marginal   IFR   IFR Intensif   IFR Très Intensif
Visi : 
Plafond : 
>= 8 km
>= 3000ft
5 à 8 km
1000 à 3000 ft
1500m à 5 km
500 à 1000 ft
800 à 1500m
200 à 500 ft
< 800m
< 200 ft
Symboles :   Orages  Brouillard  Fortes neiges  Fortes précipitations  Vent > 20 kt
SIGMETs :   Divers  Orages  Givrage  Turbulence  Onde Orograph.  Cendres Volcan.






- Altitude de l'aérodrome : 1568 ft


ETSB - Büchel AB

DERNIER METAR :
  • 121020Z 21017KT 2000 SHRA BR SCT002 BKN004TCU 03/02 Q1002 YLO YLO TEMPO RED

METARs EXPIRÉS :
  • 120941Z 20014KT 2500 -SHRA BR FEW003 BKN005TCU 03/02 Q1002 YLO YLO TEMPO RED
  • 120935Z 20014KT 4500 -RADZ BR FEW003 BKN005 03/02 Q1002 YLO YLO TEMPO RED
  • 120820Z 21019KT 9999 SCT003 BKN005 03/02 Q1002 YLO YLO TEMPO RED
  • 120748Z 20017KT 9000 -DZ SCT003 BKN005 02/02 Q1002 YLO YLO TEMPO RED

TAF TAF ETSB
Valide du 12 à 09h jusqu'au 12 à 18h UTC


120820Z 1209/1218 21015KT 5000 -RA SCT003 BKN005
TEMPO 1209/1212 22015G25KT 0800 SHRA BKN001 BKN002CB
BECMG 1212/1214 22012KT 7000 -RA SCT004 BKN008
TEMPO 1212/1218 23012G22KT 3000 SHRA BKN003 BKN005CB BY ETGL



MET'MAP, la Météo Aéronautique d'un coup d'oeil ! - Copyright ORBIFLY Décembre 2007 - Disclaimer

ORBIFLY MET'MAP TEAM :

Programmation & Développement : Alexandra Zaïnal
Conception & Développement : Baudouin d'Aumeries
Co-Programmation & Développement : Marc-Olivier Méhu
Soutien technique & logistique : Manuel Goepfert

Contact : metmap@orbifly.com




SOURCES & CREDITS :

   NOAA